createdAt,value
2023-04-18T00:01:27.531Z,49.16
2023-04-18T00:03:54.057Z,48.79
2023-04-18T00:06:22.179Z,47.95
2023-04-18T00:08:48.702Z,47.24
2023-04-18T00:11:15.118Z,49.48
2023-04-18T00:13:41.588Z,49.75
2023-04-18T00:16:08.584Z,48.60
2023-04-18T00:18:36.801Z,48.04
2023-04-18T00:21:04.345Z,48.24
2023-04-18T00:23:31.091Z,48.35
2023-04-18T00:25:57.634Z,48.38
2023-04-18T00:28:24.191Z,49.29
2023-04-18T00:30:50.932Z,48.33
2023-04-18T00:33:17.611Z,48.96
2023-04-18T00:35:44.098Z,47.75
2023-04-18T00:38:10.463Z,46.93
2023-04-18T00:40:37.881Z,48.25
2023-04-18T00:43:04.473Z,49.02
2023-04-18T00:45:31.045Z,47.30
2023-04-18T00:47:57.512Z,48.58
2023-04-18T00:50:24.547Z,49.25
2023-04-18T00:52:52.032Z,47.47
2023-04-18T00:55:18.904Z,49.13
2023-04-18T00:57:45.882Z,46.90
2023-04-18T01:00:12.921Z,48.23
2023-04-18T01:02:39.928Z,46.77
2023-04-18T01:05:07.878Z,45.89
2023-04-18T01:07:37.313Z,45.86
2023-04-18T01:10:04.284Z,46.48
2023-04-18T01:12:30.701Z,45.40
2023-04-18T01:14:57.268Z,44.05
2023-04-18T01:17:23.771Z,44.50
2023-04-18T01:19:50.947Z,42.57
2023-04-18T01:22:17.593Z,41.64
2023-04-18T01:24:43.974Z,41.93
2023-04-18T01:27:13.816Z,41.76
2023-04-18T01:29:40.735Z,41.79
2023-04-18T01:32:07.346Z,42.04
2023-04-18T01:34:33.945Z,42.43
2023-04-18T01:37:00.377Z,44.19
2023-04-18T01:39:26.901Z,45.13
2023-04-18T01:41:53.269Z,45.48
2023-04-18T01:44:19.668Z,45.30
2023-04-18T01:46:46.125Z,45.19
2023-04-18T01:49:12.740Z,45.17
2023-04-18T01:51:39.450Z,44.68
2023-04-18T01:54:06.101Z,43.30
2023-04-18T01:56:32.571Z,45.58
2023-04-18T01:58:59.045Z,43.72
2023-04-18T02:01:25.536Z,42.77
2023-04-18T02:03:52.103Z,46.14
2023-04-18T02:06:18.625Z,45.80
2023-04-18T02:08:45.051Z,44.53
2023-04-18T02:11:11.517Z,44.70
2023-04-18T02:13:37.887Z,44.58
2023-04-18T02:16:04.532Z,44.27
2023-04-18T02:18:34.435Z,42.81
2023-04-18T02:21:00.928Z,42.47
2023-04-18T02:23:27.313Z,42.17
2023-04-18T02:25:54.462Z,44.23
2023-04-18T02:28:20.867Z,46.55
2023-04-18T02:30:47.253Z,46.00
2023-04-18T02:33:13.620Z,45.16
2023-04-18T02:35:40.581Z,44.12
2023-04-18T02:38:07.155Z,45.60
2023-04-18T02:40:33.625Z,45.89
2023-04-18T02:43:00.064Z,46.19
2023-04-18T02:45:26.560Z,46.33
2023-04-18T02:47:55.861Z,46.08
2023-04-18T02:50:23.182Z,44.69
2023-04-18T02:52:49.575Z,44.12
2023-04-18T02:55:16.138Z,45.83
2023-04-18T02:57:42.524Z,45.33
2023-04-18T03:00:09.330Z,44.89
2023-04-18T03:02:35.881Z,45.06
2023-04-18T03:05:02.414Z,44.69
2023-04-18T03:07:28.840Z,46.78
2023-04-18T03:09:55.201Z,44.81
2023-04-18T03:12:21.609Z,45.43
2023-04-18T03:14:48.181Z,46.03
2023-04-18T03:17:14.975Z,44.73
2023-04-18T03:19:41.409Z,44.08
2023-04-18T03:22:07.879Z,45.36
2023-04-18T03:24:34.218Z,44.10
2023-04-18T03:27:00.648Z,43.07
2023-04-18T03:29:27.143Z,42.38
2023-04-18T03:31:53.520Z,45.21
2023-04-18T03:34:19.960Z,43.69
2023-04-18T03:36:47.986Z,43.27
2023-04-18T03:39:14.766Z,45.17
2023-04-18T03:41:41.136Z,44.58
2023-04-18T03:44:07.557Z,45.22
2023-04-18T03:46:34.008Z,43.41
2023-04-18T03:49:00.918Z,43.22
2023-04-18T03:51:27.604Z,43.00
2023-04-18T03:53:53.938Z,45.09
2023-04-18T03:56:20.558Z,45.01
2023-04-18T03:58:46.951Z,44.46
2023-04-18T04:01:13.313Z,46.13
2023-04-18T04:03:39.993Z,45.75
2023-04-18T04:06:07.055Z,44.60
2023-04-18T04:08:34.012Z,43.90
2023-04-18T04:11:00.429Z,43.64
2023-04-18T04:13:26.886Z,44.33
2023-04-18T04:15:53.497Z,45.79
2023-04-18T04:18:20.191Z,45.55
2023-04-18T04:20:46.605Z,44.13
2023-04-18T04:23:12.986Z,46.10
2023-04-18T04:25:39.384Z,45.25
2023-04-18T04:28:06.707Z,45.50
2023-04-18T04:30:33.619Z,44.16
2023-04-18T04:33:01.685Z,45.98
2023-04-18T04:35:28.337Z,45.97
2023-04-18T04:37:54.820Z,45.43
2023-04-18T04:40:22.858Z,44.90
2023-04-18T04:42:53.869Z,45.77
2023-04-18T04:45:20.512Z,47.23
2023-04-18T04:47:47.521Z,45.32
2023-04-18T04:50:15.614Z,44.27
2023-04-18T04:52:42.684Z,45.72
2023-04-18T04:55:09.439Z,44.66
2023-04-18T04:57:35.908Z,46.01
2023-04-18T05:00:02.359Z,46.13
2023-04-18T05:02:29.130Z,45.97
2023-04-18T05:04:55.672Z,45.64
2023-04-18T05:07:22.187Z,43.85
2023-04-18T05:09:49.536Z,44.49
2023-04-18T05:12:15.979Z,46.80
2023-04-18T05:14:42.593Z,46.74
2023-04-18T05:17:09.068Z,45.91
2023-04-18T05:19:35.500Z,47.63
2023-04-18T05:22:01.903Z,47.03
2023-04-18T05:24:28.326Z,46.06
2023-04-18T05:26:54.713Z,45.66
2023-04-18T05:29:21.136Z,44.78
2023-04-18T05:31:47.557Z,47.49
2023-04-18T05:34:14.420Z,48.17
2023-04-18T05:36:41.107Z,48.50
2023-04-18T05:39:08.069Z,48.47
2023-04-18T05:41:34.504Z,46.89
2023-04-18T05:44:16.831Z,47.31
2023-04-18T05:46:43.465Z,49.13
2023-04-18T05:49:09.893Z,47.59
2023-04-18T05:51:36.351Z,49.09
2023-04-18T05:54:02.914Z,48.77
2023-04-18T05:56:29.881Z,48.51
2023-04-18T05:58:56.431Z,48.02
2023-04-18T06:01:22.920Z,47.58
2023-04-18T06:03:49.511Z,47.63
2023-04-18T06:06:16.177Z,46.83
2023-04-18T06:08:42.708Z,47.20
2023-04-18T06:11:09.124Z,46.14
2023-04-18T06:13:37.096Z,43.89
2023-04-18T06:16:03.998Z,42.00
2023-04-18T06:18:30.547Z,39.96
2023-04-18T06:20:56.902Z,36.96
2023-04-18T06:23:23.283Z,37.01
2023-04-18T06:25:49.938Z,36.94
2023-04-18T06:28:16.696Z,36.49
2023-04-18T06:30:43.347Z,35.67
2023-04-18T06:33:11.073Z,37.98
2023-04-18T06:35:37.974Z,39.18
2023-04-18T06:38:04.333Z,40.43
2023-04-18T06:40:30.737Z,40.34
2023-04-18T06:42:57.256Z,41.32
2023-04-18T06:45:23.706Z,42.14
2023-04-18T06:47:51.354Z,38.66
2023-04-18T06:50:17.854Z,39.41
2023-04-18T06:52:45.536Z,40.39
2023-04-18T06:55:13.444Z,40.91
2023-04-18T06:57:41.326Z,41.01
2023-04-18T07:00:08.737Z,40.72
2023-04-18T07:02:37.430Z,40.34
2023-04-18T07:05:04.710Z,40.57
2023-04-18T07:07:31.753Z,39.54
2023-04-18T07:09:58.182Z,38.23
2023-04-18T07:12:24.763Z,38.74
2023-04-18T07:14:52.112Z,37.80
2023-04-18T07:17:18.554Z,37.29
2023-04-18T07:19:44.975Z,36.72
2023-04-18T07:22:11.385Z,36.65
2023-04-18T07:24:39.269Z,36.23
2023-04-18T07:27:06.885Z,35.58
2023-04-18T07:29:33.244Z,36.45
2023-04-18T07:31:59.692Z,36.07
2023-04-18T07:34:29.793Z,35.36
2023-04-18T07:36:58.967Z,35.34
2023-04-18T07:39:25.504Z,37.06
2023-04-18T07:41:51.871Z,37.05
2023-04-18T07:44:18.518Z,37.31
2023-04-18T07:46:45.149Z,37.82
2023-04-18T07:49:11.815Z,37.30
2023-04-18T07:51:38.472Z,36.60
2023-04-18T07:54:04.856Z,36.93
2023-04-18T07:56:31.212Z,37.37
2023-04-18T07:58:57.637Z,37.45
2023-04-18T08:01:24.703Z,36.65
2023-04-18T08:03:53.173Z,36.95
2023-04-18T08:06:20.283Z,36.08
2023-04-18T08:08:47.073Z,33.40
2023-04-18T08:11:13.538Z,33.18
2023-04-18T08:13:39.996Z,33.96
2023-04-18T08:16:06.590Z,34.65
2023-04-18T08:18:33.051Z,34.93
2023-04-18T08:20:59.500Z,36.11
2023-04-18T08:23:25.996Z,35.71
2023-04-18T08:25:52.428Z,34.60
2023-04-18T08:28:18.878Z,34.69
2023-04-18T08:30:48.750Z,36.02
2023-04-18T08:33:16.157Z,35.34
2023-04-18T08:35:43.049Z,35.36
2023-04-18T08:38:09.685Z,35.76
2023-04-18T08:40:37.628Z,35.04
2023-04-18T08:43:09.257Z,35.26
2023-04-18T08:45:36.873Z,35.57
2023-04-18T08:48:04.014Z,35.51
2023-04-18T08:50:30.691Z,36.46
2023-04-18T08:52:59.640Z,36.48
2023-04-18T08:55:26.149Z,35.62
2023-04-18T08:57:56.536Z,36.50
2023-04-18T09:00:23.603Z,37.54
2023-04-18T09:02:55.028Z,37.62
2023-04-18T09:05:22.616Z,35.46
2023-04-18T09:07:50.739Z,36.58
2023-04-18T09:10:32.504Z,37.78
2023-04-18T09:13:00.966Z,38.69
2023-04-18T09:15:29.143Z,37.33
2023-04-18T09:17:58.342Z,36.06
2023-04-18T09:20:43.833Z,36.52
2023-04-18T09:23:14.557Z,35.18
2023-04-18T09:25:42.734Z,36.24
2023-04-18T09:28:28.980Z,36.76
2023-04-18T09:30:56.915Z,36.91
2023-04-18T09:33:32.386Z,34.95
2023-04-18T09:36:20.668Z,36.70
2023-04-18T09:38:48.358Z,36.35
2023-04-18T09:41:19.058Z,37.89
2023-04-18T09:43:47.332Z,36.12
2023-04-18T09:46:14.601Z,35.96
2023-04-18T09:48:41.784Z,34.57
2023-04-18T09:51:10.681Z,35.23
2023-04-18T09:53:42.080Z,34.27
2023-04-18T09:56:28.118Z,35.37
2023-04-18T09:59:09.348Z,35.79
2023-04-18T10:01:36.514Z,36.38
2023-04-18T10:04:06.511Z,36.63
2023-04-18T10:06:41.885Z,35.87
2023-04-18T10:09:09.442Z,34.84
2023-04-18T10:11:36.471Z,36.30
2023-04-18T10:14:07.720Z,33.83
2023-04-18T10:16:36.323Z,33.42
2023-04-18T10:19:26.147Z,32.29
2023-04-18T10:21:57.399Z,34.07
2023-04-18T10:24:45.429Z,35.29
2023-04-18T10:27:11.858Z,35.96
2023-04-18T10:29:52.307Z,34.33
2023-04-18T10:32:24.658Z,35.49
2023-04-18T10:34:53.477Z,34.30
2023-04-18T10:37:19.987Z,35.41
2023-04-18T10:39:49.160Z,34.74
2023-04-18T10:42:15.596Z,33.39
2023-04-18T10:44:42.045Z,33.60
2023-04-18T10:47:08.785Z,32.91
2023-04-18T10:49:38.295Z,33.03
2023-04-18T10:52:08.459Z,34.09
2023-04-18T10:54:46.968Z,34.02
2023-04-18T10:57:13.826Z,34.20
2023-04-18T10:59:49.211Z,31.64
2023-04-18T11:02:25.254Z,33.77
2023-04-18T11:04:56.973Z,32.04
2023-04-18T11:07:36.491Z,33.46
2023-04-18T11:10:04.685Z,31.36
2023-04-18T11:12:33.038Z,34.20
2023-04-18T11:15:03.045Z,33.05
2023-04-18T11:17:36.094Z,32.08
2023-04-18T11:20:07.369Z,31.95
2023-04-18T11:22:44.137Z,31.03
2023-04-18T11:25:10.888Z,34.16
2023-04-18T11:27:37.508Z,34.14
2023-04-18T11:30:04.253Z,31.13
2023-04-18T11:32:30.755Z,33.97
2023-04-18T11:34:57.276Z,33.63
2023-04-18T11:37:23.704Z,34.02
2023-04-18T11:39:53.059Z,31.90
2023-04-18T11:42:19.730Z,31.41
2023-04-18T11:44:47.190Z,30.94
2023-04-18T11:47:24.838Z,32.08
2023-04-18T11:50:15.824Z,30.69
2023-04-18T11:52:42.628Z,30.18
2023-04-18T11:55:17.324Z,34.31
2023-04-18T11:58:01.065Z,30.22
2023-04-18T12:00:31.459Z,29.76
2023-04-18T12:02:59.222Z,29.54
2023-04-18T12:05:31.179Z,30.08
2023-04-18T12:08:13.207Z,32.07
2023-04-18T12:11:06.125Z,30.64
2023-04-18T12:13:32.850Z,30.69
2023-04-18T12:16:01.965Z,32.51
2023-04-18T12:18:29.795Z,31.39
2023-04-18T12:20:57.005Z,31.40
2023-04-18T12:23:31.400Z,33.44
2023-04-18T12:26:06.980Z,33.55
2023-04-18T12:28:34.784Z,31.77
2023-04-18T12:31:02.246Z,31.30
2023-04-18T12:33:30.441Z,31.10
2023-04-18T12:35:57.363Z,31.28
2023-04-18T12:38:24.013Z,31.24
2023-04-18T12:40:51.703Z,30.88
2023-04-18T12:43:19.051Z,29.57
2023-04-18T12:45:46.418Z,29.98
2023-04-18T12:48:13.741Z,33.29
2023-04-18T12:50:40.135Z,33.57
2023-04-18T12:53:06.663Z,31.81
2023-04-18T12:55:33.081Z,32.52
2023-04-18T12:57:59.834Z,31.23
2023-04-18T13:00:31.477Z,31.33
2023-04-18T13:02:58.984Z,31.41
2023-04-18T13:05:29.851Z,33.18
2023-04-18T13:08:15.339Z,33.29
2023-04-18T13:10:43.347Z,32.48
2023-04-18T13:13:09.816Z,34.39
2023-04-18T13:15:36.307Z,32.53
2023-04-18T13:18:05.862Z,33.46
2023-04-18T13:20:33.500Z,33.04
2023-04-18T13:23:00.117Z,33.02
2023-04-18T13:25:26.617Z,34.33
2023-04-18T13:27:53.335Z,32.34
2023-04-18T13:30:20.010Z,32.63
2023-04-18T13:32:47.031Z,32.57
2023-04-18T13:35:13.688Z,33.94
2023-04-18T13:37:40.122Z,31.45
2023-04-18T13:40:07.159Z,30.85
2023-04-18T13:42:34.341Z,31.54
2023-04-18T13:45:00.719Z,30.43
2023-04-18T13:47:27.480Z,31.65
2023-04-18T13:49:54.044Z,32.82
2023-04-18T13:52:20.487Z,34.34
2023-04-18T13:54:47.975Z,33.43
2023-04-18T13:57:14.705Z,32.56
2023-04-18T13:59:41.150Z,33.24
2023-04-18T14:02:10.724Z,32.98
2023-04-18T14:04:37.688Z,33.71
2023-04-18T14:07:06.094Z,33.58
2023-04-18T14:09:32.585Z,32.71
2023-04-18T14:11:59.102Z,33.49
2023-04-18T14:14:25.762Z,32.13
2023-04-18T14:16:53.559Z,33.95
2023-04-18T14:19:20.100Z,32.44
2023-04-18T14:21:47.579Z,32.56
2023-04-18T14:24:14.226Z,32.74
2023-04-18T14:26:40.655Z,31.29
2023-04-18T14:29:07.074Z,31.76
2023-04-18T14:31:33.524Z,32.26
2023-04-18T14:33:59.956Z,33.67
2023-04-18T14:36:27.126Z,33.61
2023-04-18T14:38:54.642Z,33.44
2023-04-18T14:41:21.194Z,33.95
2023-04-18T14:43:47.734Z,32.52
2023-04-18T14:46:16.434Z,32.29
2023-04-18T14:48:45.640Z,31.38
2023-04-18T14:51:12.266Z,33.08
2023-04-18T14:53:39.002Z,29.89
2023-04-18T14:56:05.815Z,30.28
2023-04-18T14:58:32.208Z,30.42
2023-04-18T15:00:58.848Z,31.34
2023-04-18T15:03:25.384Z,30.70
2023-04-18T15:05:53.105Z,30.48
2023-04-18T15:08:19.616Z,31.08
2023-04-18T15:10:47.478Z,32.46
2023-04-18T15:13:13.869Z,33.04
2023-04-18T15:15:40.325Z,32.31
2023-04-18T15:18:08.100Z,32.96
2023-04-18T15:20:36.092Z,32.80
2023-04-18T15:23:02.807Z,32.94
2023-04-18T15:25:30.358Z,32.98
2023-04-18T15:27:58.143Z,32.96
2023-04-18T15:30:25.369Z,32.91
2023-04-18T15:32:52.132Z,32.96
2023-04-18T15:35:18.857Z,33.07
2023-04-18T15:37:45.472Z,32.81
2023-04-18T15:40:16.084Z,33.20
2023-04-18T15:42:43.581Z,34.12
2023-04-18T15:45:10.894Z,34.45
2023-04-18T15:47:38.433Z,34.71
2023-04-18T15:50:05.348Z,35.30
2023-04-18T15:52:31.690Z,35.56
2023-04-18T15:54:58.025Z,35.73
2023-04-18T15:57:24.402Z,36.06
2023-04-18T15:59:50.783Z,36.56
2023-04-18T16:02:17.205Z,36.48
2023-04-18T16:04:43.716Z,37.08
2023-04-18T16:07:12.210Z,36.78
2023-04-18T16:09:38.672Z,36.98
2023-04-18T16:12:07.042Z,36.59
2023-04-18T16:14:33.686Z,37.78
2023-04-18T16:17:00.217Z,39.08
2023-04-18T16:19:26.569Z,38.47
2023-04-18T16:21:52.942Z,38.24
2023-04-18T16:24:19.549Z,38.55
2023-04-18T16:26:46.234Z,38.25
2023-04-18T16:29:12.635Z,37.63
2023-04-18T16:31:39.122Z,37.40
2023-04-18T16:34:05.696Z,37.81
2023-04-18T16:36:34.879Z,38.75
2023-04-18T16:39:01.358Z,39.65
2023-04-18T16:41:28.225Z,38.50
2023-04-18T16:43:54.874Z,38.81
2023-04-18T16:46:21.317Z,38.31
2023-04-18T16:48:48.619Z,38.62
2023-04-18T16:51:15.772Z,38.32
2023-04-18T16:53:42.225Z,38.59
2023-04-18T16:56:08.947Z,38.73
2023-04-18T16:58:35.536Z,38.73
2023-04-18T17:01:02.325Z,38.67
2023-04-18T17:03:28.885Z,38.59
2023-04-18T17:05:55.860Z,40.29
2023-04-18T17:08:22.262Z,40.87
2023-04-18T17:10:51.948Z,41.50
2023-04-18T17:13:18.449Z,41.91
2023-04-18T17:15:44.852Z,42.76
2023-04-18T17:18:12.376Z,42.78
2023-04-18T17:20:38.940Z,42.78
2023-04-18T17:23:05.343Z,42.78
2023-04-18T17:25:31.848Z,42.80
2023-04-18T17:27:58.675Z,42.39
2023-04-18T17:30:25.438Z,42.09
2023-04-18T17:32:51.881Z,41.80
2023-04-18T17:35:18.453Z,41.48
2023-04-18T17:37:50.080Z,41.59
2023-04-18T17:40:16.494Z,42.34
2023-04-18T17:42:42.894Z,41.34
2023-04-18T17:45:09.775Z,41.75
2023-04-18T17:47:36.688Z,41.33
2023-04-18T17:50:04.249Z,41.11
2023-04-18T17:52:31.093Z,41.49
2023-04-18T17:54:59.582Z,41.32
2023-04-18T17:57:26.643Z,41.31
2023-04-18T17:59:53.516Z,40.92
2023-04-18T18:02:20.245Z,41.02
2023-04-18T18:04:46.972Z,40.52
2023-04-18T18:07:13.484Z,40.91
2023-04-18T18:09:41.988Z,40.72
2023-04-18T18:12:09.908Z,41.41
2023-04-18T18:14:36.532Z,41.79
2023-04-18T18:17:03.154Z,41.94
2023-04-18T18:19:29.758Z,41.16
2023-04-18T18:21:56.253Z,41.07
2023-04-18T18:24:22.758Z,42.40
2023-04-18T18:26:51.532Z,42.76
2023-04-18T18:29:19.190Z,43.97
2023-04-18T18:31:45.877Z,43.21
2023-04-18T18:34:12.409Z,41.62
2023-04-18T18:36:38.959Z,42.23
2023-04-18T18:39:05.395Z,43.80
2023-04-18T18:41:31.756Z,45.28
2023-04-18T18:43:58.109Z,44.77
2023-04-18T18:46:24.562Z,44.17
2023-04-18T18:48:51.845Z,45.20
2023-04-18T18:51:19.039Z,45.64
2023-04-18T18:53:46.612Z,45.16
2023-04-18T18:56:13.213Z,45.49
2023-04-18T18:58:40.362Z,45.30
2023-04-18T19:01:06.792Z,45.37
2023-04-18T19:03:34.627Z,45.03
2023-04-18T19:06:03.935Z,45.66
2023-04-18T19:08:30.880Z,46.28
2023-04-18T19:10:57.354Z,45.90
2023-04-18T19:13:24.188Z,46.03
2023-04-18T19:15:51.424Z,46.00
2023-04-18T19:18:19.904Z,47.63
2023-04-18T19:20:46.727Z,48.12
2023-04-18T19:23:13.106Z,47.10
2023-04-18T19:25:39.532Z,45.65
2023-04-18T19:28:05.933Z,45.92
2023-04-18T19:30:32.583Z,45.46
2023-04-18T19:32:59.226Z,45.30
2023-04-18T19:35:25.856Z,44.64
2023-04-18T19:37:52.275Z,45.19
2023-04-18T19:40:18.938Z,45.79
2023-04-18T19:42:46.084Z,46.07
2023-04-18T19:45:14.963Z,46.05
2023-04-18T19:47:43.789Z,45.59
2023-04-18T19:50:11.111Z,47.73
2023-04-18T19:52:38.050Z,48.91
2023-04-18T19:55:05.222Z,47.67
2023-04-18T19:57:31.854Z,47.43
2023-04-18T19:59:58.262Z,46.34
2023-04-18T20:02:24.763Z,45.70
2023-04-18T20:04:51.368Z,46.13
2023-04-18T20:07:18.037Z,47.73
2023-04-18T20:09:44.460Z,46.60
2023-04-18T20:12:10.885Z,47.06
2023-04-18T20:14:37.245Z,47.35
2023-04-18T20:17:03.695Z,48.08
2023-04-18T20:19:30.154Z,48.75
2023-04-18T20:21:56.825Z,48.90
2023-04-18T20:24:23.762Z,48.58
2023-04-18T20:26:51.315Z,49.09
2023-04-18T20:29:17.749Z,49.88
2023-04-18T20:31:44.212Z,48.31
2023-04-18T20:34:11.015Z,48.22
2023-04-18T20:36:41.418Z,48.70
2023-04-18T20:39:12.618Z,48.01
2023-04-18T20:41:46.448Z,48.01
2023-04-18T20:44:14.104Z,47.59
2023-04-18T20:46:41.019Z,48.19
2023-04-18T20:49:08.894Z,49.05
2023-04-18T20:51:37.910Z,48.91
2023-04-18T20:54:05.336Z,48.82
2023-04-18T20:56:32.112Z,48.34
2023-04-18T20:58:58.502Z,49.21
2023-04-18T21:01:25.303Z,49.90
2023-04-18T21:03:52.037Z,50.81
2023-04-18T21:06:22.142Z,50.59
2023-04-18T21:08:48.807Z,49.62
2023-04-18T21:11:15.241Z,48.70
2023-04-18T21:13:41.620Z,49.79
2023-04-18T21:16:10.071Z,50.39
2023-04-18T21:18:37.020Z,50.18
2023-04-18T21:21:04.580Z,49.76
2023-04-18T21:23:31.016Z,47.55
2023-04-18T21:25:57.417Z,48.86
2023-04-18T21:28:23.817Z,47.82
2023-04-18T21:30:50.636Z,47.23
2023-04-18T21:33:17.028Z,46.24
2023-04-18T21:35:43.483Z,48.13
2023-04-18T21:38:10.118Z,48.13
2023-04-18T21:40:37.342Z,46.92
2023-04-18T21:43:03.754Z,48.02
2023-04-18T21:45:30.359Z,47.28
2023-04-18T21:47:56.872Z,48.10
2023-04-18T21:50:23.314Z,48.41
2023-04-18T21:52:49.755Z,47.89
2023-04-18T21:55:17.630Z,47.83
2023-04-18T21:57:44.035Z,48.71
2023-04-18T22:00:11.216Z,49.08
2023-04-18T22:02:37.829Z,49.34
2023-04-18T22:05:04.777Z,48.82
2023-04-18T22:07:31.266Z,48.46
2023-04-18T22:09:59.593Z,48.42
2023-04-18T22:12:26.341Z,49.19
2023-04-18T22:14:53.010Z,49.00
2023-04-18T22:17:20.950Z,49.42
2023-04-18T22:19:49.016Z,49.88
2023-04-18T22:22:15.500Z,50.17
2023-04-18T22:24:41.856Z,48.81
2023-04-18T22:27:08.206Z,46.51
2023-04-18T22:29:34.585Z,46.68
2023-04-18T22:32:00.982Z,47.37
2023-04-18T22:34:27.374Z,47.24
2023-04-18T22:36:53.915Z,48.70
2023-04-18T22:39:20.316Z,49.92
2023-04-18T22:41:46.650Z,50.01
2023-04-18T22:44:13.246Z,49.36
2023-04-18T22:46:39.786Z,49.50
2023-04-18T22:49:06.399Z,49.78
2023-04-18T22:51:32.937Z,50.86
2023-04-18T22:53:59.293Z,51.24
2023-04-18T22:56:25.985Z,50.67
2023-04-18T22:58:52.363Z,51.28
2023-04-18T23:01:18.837Z,52.27
2023-04-18T23:03:45.489Z,52.16
2023-04-18T23:06:12.042Z,52.26
2023-04-18T23:08:38.601Z,51.67
2023-04-18T23:11:04.999Z,51.92
2023-04-18T23:13:31.384Z,52.29
2023-04-18T23:15:57.880Z,53.01
2023-04-18T23:18:24.269Z,53.27
2023-04-18T23:20:50.688Z,53.84
2023-04-18T23:23:17.047Z,53.90
2023-04-18T23:25:44.108Z,54.54
2023-04-18T23:28:10.616Z,54.18
2023-04-18T23:30:37.193Z,53.80
2023-04-18T23:33:03.768Z,53.40
2023-04-18T23:35:30.432Z,52.94
2023-04-18T23:37:57.111Z,53.81
2023-04-18T23:40:23.736Z,53.62
2023-04-18T23:42:50.347Z,52.87
2023-04-18T23:45:16.987Z,54.23
2023-04-18T23:47:43.557Z,54.10
2023-04-18T23:50:10.403Z,53.94
2023-04-18T23:52:38.435Z,55.70
2023-04-18T23:55:05.271Z,55.07
2023-04-18T23:57:31.740Z,55.07
2023-04-18T23:59:58.089Z,55.08
